ETH707 EDDF-HAAB
Flight info
| Callsign | ETH707 |
|---|---|
| Flight time | N/A |
| Altitude | 35000 |
| Route | CINDY2D CINDY Z74 LAMPU DCT NOMBO Y161 MAH DCT VAVOR DCT RADIZ DCT VILAK DCT DOL DCT NIVES DCT VRANA DCT DIMIS DCT SALUN N705 MMA/N0479F370 N705 BOPIX N710 TAKRI P751 TOMRU DCT KSL/N0487F380 DCT ALRAP/N0488F370 T124 AMUDO AMUDO1A |
| Aircraft | B77W/H-SDE1E2E3FGHIJ2J3J4J5M1RWXY/LB1D1 |
Departure
| Time | 2026-05-07 20:26 |
|---|---|
| Airport | Frankfurt Main Airport (EDDF) |
Arrival
| Time | N/A |
|---|---|
| Airport | Addis Ababa Bole International Airport (HAAB) |
| Time | Latitude | Longitude | Altitude | Speed | Heading |
|---|---|---|---|---|---|
| 2026-05-07 20:04 | 50.04866 | 8.57528 | 381 ft | 0 kts | 205° |
| 2026-05-07 20:13 | 50.04874 | 8.57534 | 381 ft | 2 kts | 205° |
| 2026-05-07 20:13 | 50.04884 | 8.57541 | 381 ft | 0 kts | 204° |
| 2026-05-07 20:13 | 50.04897 | 8.57549 | 381 ft | 2 kts | 187° |
| 2026-05-07 20:14 | 50.04912 | 8.57548 | 381 ft | 2 kts | 163° |
| 2026-05-07 20:14 | 50.04925 | 8.57538 | 381 ft | 2 kts | 143° |
| 2026-05-07 20:14 | 50.04936 | 8.57522 | 381 ft | 2 kts | 123° |
| 2026-05-07 20:14 | 50.04940 | 8.57510 | 382 ft | 0 kts | 113° |
| 2026-05-07 20:16 | 50.04939 | 8.57512 | 381 ft | 1 kts | 113° |
| 2026-05-07 20:16 | 50.04930 | 8.57545 | 381 ft | 5 kts | 113° |
| 2026-05-07 20:16 | 50.04909 | 8.57622 | 380 ft | 9 kts | 113° |
| 2026-05-07 20:17 | 50.04879 | 8.57733 | 379 ft | 12 kts | 113° |
| 2026-05-07 20:17 | 50.04838 | 8.57858 | 379 ft | 12 kts | 128° |
| 2026-05-07 20:17 | 50.04772 | 8.57926 | 379 ft | 11 kts | 162° |
| 2026-05-07 20:17 | 50.04700 | 8.57965 | 378 ft | 10 kts | 160° |
| 2026-05-07 20:18 | 50.04633 | 8.58003 | 378 ft | 9 kts | 160° |
| 2026-05-07 20:18 | 50.04625 | 8.58008 | 378 ft | 0 kts | 160° |
| 2026-05-07 20:18 | 50.04615 | 8.58013 | 378 ft | 6 kts | 159° |
| 2026-05-07 20:19 | 50.04549 | 8.57997 | 378 ft | 12 kts | 224° |
| 2026-05-07 20:19 | 50.04507 | 8.57866 | 376 ft | 14 kts | 249° |
| 2026-05-07 20:19 | 50.04477 | 8.57740 | 373 ft | 17 kts | 250° |
| 2026-05-07 20:19 | 50.04430 | 8.57546 | 371 ft | 19 kts | 250° |
| 2026-05-07 20:20 | 50.04383 | 8.57346 | 373 ft | 19 kts | 250° |
| 2026-05-07 20:20 | 50.04336 | 8.57148 | 372 ft | 20 kts | 250° |
| 2026-05-07 20:20 | 50.04283 | 8.56931 | 371 ft | 23 kts | 250° |
| 2026-05-07 20:20 | 50.04218 | 8.56659 | 364 ft | 30 kts | 250° |
| 2026-05-07 20:21 | 50.04154 | 8.56392 | 361 ft | 12 kts | 250° |
| 2026-05-07 20:21 | 50.04126 | 8.56271 | 360 ft | 12 kts | 250° |
| 2026-05-07 20:21 | 50.04089 | 8.56112 | 358 ft | 19 kts | 250° |
| 2026-05-07 20:21 | 50.04032 | 8.55880 | 354 ft | 26 kts | 249° |
| 2026-05-07 20:22 | 50.03964 | 8.55597 | 354 ft | 27 kts | 250° |
| 2026-05-07 20:22 | 50.03901 | 8.55330 | 354 ft | 25 kts | 250° |
| 2026-05-07 20:22 | 50.03841 | 8.55082 | 351 ft | 24 kts | 248° |
| 2026-05-07 20:22 | 50.03780 | 8.54839 | 348 ft | 23 kts | 249° |
| 2026-05-07 20:23 | 50.03760 | 8.54760 | 346 ft | 23 kts | 249° |
| 2026-05-07 20:23 | 50.03705 | 8.54518 | 343 ft | 22 kts | 250° |
| 2026-05-07 20:23 | 50.03653 | 8.54297 | 343 ft | 20 kts | 250° |
| 2026-05-07 20:23 | 50.03607 | 8.54104 | 346 ft | 17 kts | 250° |
| 2026-05-07 20:24 | 50.03565 | 8.53926 | 347 ft | 19 kts | 250° |
| 2026-05-07 20:24 | 50.03516 | 8.53718 | 348 ft | 21 kts | 250° |
| 2026-05-07 20:24 | 50.03468 | 8.53519 | 348 ft | 13 kts | 245° |
| 2026-05-07 20:24 | 50.03404 | 8.53463 | 345 ft | 11 kts | 161° |
| 2026-05-07 20:25 | 50.03347 | 8.53548 | 343 ft | 12 kts | 128° |
| 2026-05-07 20:25 | 50.03313 | 8.53668 | 342 ft | 10 kts | 81° |
| 2026-05-07 20:25 | 50.03344 | 8.53805 | 340 ft | 19 kts | 71° |
| 2026-05-07 20:25 | 50.03445 | 8.54228 | 340 ft | 79 kts | 70° |
| 2026-05-07 20:26 | 50.03733 | 8.55432 | 351 ft | 155 kts | 70° |
| 2026-05-07 20:26 | 50.04140 | 8.57157 | 945 ft | 174 kts | 70° |
| 2026-05-07 20:26 | 50.04567 | 8.58966 | 1878 ft | 185 kts | 70° |
| 2026-05-07 20:26 | 50.04963 | 8.60790 | 2911 ft | 174 kts | 71° |
| 2026-05-07 20:27 | 50.05354 | 8.62649 | 3253 ft | 190 kts | 71° |
| 2026-05-07 20:27 | 50.05765 | 8.64737 | 3518 ft | 210 kts | 79° |
| 2026-05-07 20:27 | 50.05559 | 8.67127 | 3685 ft | 237 kts | 118° |
| 2026-05-07 20:27 | 50.04589 | 8.69131 | 3963 ft | 259 kts | 131° |
| 2026-05-07 20:28 | 50.03394 | 8.71182 | 4426 ft | 276 kts | 132° |
| 2026-05-07 20:28 | 50.01961 | 8.73322 | 4909 ft | 294 kts | 146° |
| 2026-05-07 20:28 | 50.00211 | 8.74992 | 5381 ft | 310 kts | 143° |
| 2026-05-07 20:28 | 49.98559 | 8.77183 | 5893 ft | 325 kts | 137° |
| 2026-05-07 20:29 | 49.96879 | 8.79586 | 6431 ft | 340 kts | 137° |
| 2026-05-07 20:29 | 49.95079 | 8.82175 | 7054 ft | 352 kts | 137° |
| 2026-05-07 20:29 | 49.93264 | 8.84784 | 7850 ft | 359 kts | 137° |
| 2026-05-07 20:29 | 49.91399 | 8.87462 | 8670 ft | 364 kts | 137° |
| 2026-05-07 20:30 | 49.89576 | 8.90076 | 9439 ft | 369 kts | 138° |
| 2026-05-07 20:30 | 49.87812 | 8.92602 | 10141 ft | 374 kts | 138° |
| 2026-05-07 20:30 | 49.85851 | 8.95407 | 10988 ft | 378 kts | 138° |
| 2026-05-07 20:30 | 49.84247 | 8.97700 | 11697 ft | 381 kts | 138° |
| 2026-05-07 20:31 | 49.82542 | 9.00134 | 12416 ft | 385 kts | 138° |
| 2026-05-07 20:31 | 49.81019 | 9.02307 | 13057 ft | 388 kts | 138° |
| 2026-05-07 20:31 | 49.79274 | 9.04806 | 13786 ft | 392 kts | 136° |
| 2026-05-07 20:31 | 49.77586 | 9.07779 | 14557 ft | 398 kts | 127° |
| 2026-05-07 20:32 | 49.76112 | 9.11479 | 15382 ft | 404 kts | 120° |
| 2026-05-07 20:32 | 49.74534 | 9.15155 | 16196 ft | 409 kts | 129° |
| 2026-05-07 20:32 | 49.72679 | 9.18458 | 16990 ft | 413 kts | 134° |
| 2026-05-07 20:32 | 49.70648 | 9.21666 | 17811 ft | 418 kts | 136° |
| 2026-05-07 20:33 | 49.68519 | 9.24765 | 18584 ft | 423 kts | 139° |
| 2026-05-07 20:33 | 49.66309 | 9.27798 | 19358 ft | 428 kts | 140° |
| 2026-05-07 20:33 | 49.64031 | 9.30783 | 20122 ft | 432 kts | 141° |
| 2026-05-07 20:33 | 49.61709 | 9.33733 | 20855 ft | 437 kts | 142° |
| 2026-05-07 20:34 | 49.59316 | 9.36703 | 21581 ft | 442 kts | 142° |
| 2026-05-07 20:34 | 49.56950 | 9.39597 | 22286 ft | 447 kts | 142° |
| 2026-05-07 20:34 | 49.54494 | 9.42568 | 22975 ft | 451 kts | 142° |
| 2026-05-07 20:34 | 49.51998 | 9.45561 | 23630 ft | 456 kts | 142° |
| 2026-05-07 20:35 | 49.49486 | 9.48557 | 24308 ft | 461 kts | 142° |
| 2026-05-07 20:35 | 49.46923 | 9.51599 | 24957 ft | 465 kts | 143° |
| 2026-05-07 20:35 | 49.44514 | 9.54447 | 25526 ft | 469 kts | 143° |
| 2026-05-07 20:35 | 49.42094 | 9.57302 | 26082 ft | 474 kts | 143° |
| 2026-05-07 20:36 | 49.39460 | 9.60400 | 26702 ft | 477 kts | 143° |
| 2026-05-07 20:36 | 49.36818 | 9.63502 | 27271 ft | 482 kts | 143° |
| 2026-05-07 20:36 | 49.34177 | 9.66670 | 27816 ft | 487 kts | 140° |
| 2026-05-07 20:36 | 49.32561 | 9.68974 | 28159 ft | 490 kts | 136° |
| 2026-05-07 20:37 | 49.31136 | 9.71134 | 28492 ft | 492 kts | 136° |
| 2026-05-07 20:37 | 49.30201 | 9.72567 | 28711 ft | 493 kts | 136° |
| 2026-05-07 20:37 | 49.28518 | 9.75148 | 29112 ft | 496 kts | 136° |
| 2026-05-07 20:38 | 49.26228 | 9.78656 | 29621 ft | 499 kts | 136° |
| 2026-05-07 20:38 | 49.23826 | 9.82325 | 30106 ft | 503 kts | 136° |
| 2026-05-07 20:38 | 49.21334 | 9.86125 | 30622 ft | 507 kts | 136° |
| 2026-05-07 20:38 | 49.18836 | 9.89924 | 31255 ft | 506 kts | 136° |
| 2026-05-07 20:39 | 49.16326 | 9.93737 | 31905 ft | 503 kts | 136° |
| 2026-05-07 20:39 | 49.13936 | 9.97360 | 32446 ft | 502 kts | 136° |
| 2026-05-07 20:39 | 49.11475 | 10.01084 | 32882 ft | 502 kts | 136° |
| 2026-05-07 20:39 | 49.08965 | 10.04875 | 33249 ft | 504 kts | 136° |
| 2026-05-07 20:40 | 49.06484 | 10.08617 | 33632 ft | 505 kts | 137° |
| 2026-05-07 20:40 | 49.04020 | 10.12405 | 33993 ft | 505 kts | 136° |
| 2026-05-07 20:40 | 49.01572 | 10.16244 | 34349 ft | 503 kts | 136° |
| 2026-05-07 20:40 | 48.99141 | 10.20053 | 34717 ft | 502 kts | 136° |
| 2026-05-07 20:41 | 48.96684 | 10.23893 | 34996 ft | 504 kts | 136° |
| 2026-05-07 20:41 | 48.91771 | 10.31548 | 35061 ft | 503 kts | 136° |
| 2026-05-07 20:42 | 48.87253 | 10.38560 | 35063 ft | 503 kts | 136° |
| 2026-05-07 20:42 | 48.83481 | 10.44399 | 35072 ft | 503 kts | 136° |
| 2026-05-07 20:43 | 48.81410 | 10.47598 | 35060 ft | 503 kts | 136° |
| 2026-05-07 20:43 | 48.81360 | 10.47674 | 35061 ft | 503 kts | 136° |